Ballinger, TX (76821)

7:10 PM CDT on March 27, 2017 (GMT -0500)
West of Lake Winters | | Change Station

Elev 1834 ft 31.96 °N, 99.88 °W | Updated 3 seconds ago

Clear
Clear
79.7 °F
Feels Like 79 °F
N
10.3
Wind Variable Wind from SSE
Gusts 12.3 mph

Today
High -- | Low -- °F
--% Chance of Precip.
Yesterday
High -- | Low -- °F
Precip. -- in
Pressure 29.84 in
Visibility 10.0 miles
Clouds Clear
Heat Index 79 °F
Dew Point 46 °F
Humidity 30%
Rainfall 0.00 in
Snow Depth Not available.
7:34 AM 7:56 PM
Waning Crescent, 0% visible
METAR KCOM 272355Z AUTO 12006KT 10SM CLR 26/06 A2984 RMK AO2 T02550063 10269 20208
Pressure 29.84 in
Visibility 10.0 miles
Clouds Clear
Heat Index 79 °F
Dew Point 46 °F
Humidity 30%
Rainfall 0.00 in
Snow Depth Not available.
7:34 AM 7:56 PM
Waning Crescent, 0% visible
METAR KCOM 272355Z AUTO 12006KT 10SM CLR 26/06 A2984 RMK AO2 T02550063 10269 20208

Get Severe Weather Alerts

Thanks for signing up!

Be on the lookout for a verification email in your inbox.

You'll start receiving the daily forecast at 8 AM.

×

10-Day Weather Forecast

Almanac

Astronomy

Mar. 27, 2017 Rise Set
Actual Time
Civil Twilight
Nautical Twilight
Astronomical Twilight
Moon
Length of Visible Light
Length of Day
Tomorrow will be .
, % of the Moon is Illuminated

Today's Extremes

State Highs State Lows

Community

WunderPhotos

Upload Photos

1,962,540 photos uploaded!

WunderBlog® & News

Nearby

Air Quality

  Air Quality AQ Index Pollutant
Not available.

Snow Depth

Station Depth Elevation

Earthquake Activity

City Distance Mag. Time & Date
Minimum magnitude displayed is 2.5.

Earthquake Activity

City Distance Mag. Time & Date
Minimum magnitude displayed is 2.5.

Coastal Water Temperatures

Place Temperature

Stations

Nearby Weather Stations

Station Location Temp. Windchill Dew Point Humidity Wind Precip. Elev Updated Type
                   

Watches & Warnings

There are currently no watches in effect.